Time;durP1;ratioP1;P1;durP2;ratioP2;P2;SDS_P1;SDS_P2;PMS_P1;PMS_P2;Temp;Humidity;BMP_temperature;BMP_pressure;BME280_temperature;BME280_humidity;BME280_pressure;Samples;Min_cycle;Max_cycle;Signal;HPM_P1;HPM_P2
2022/10/05 00:01:42;;;;;;;8.02;5.93;;;;;;;9.30;99.69;101053.81;5041867;28;20049;-75
2022/10/05 00:04:27;;;;;;;7.47;5.43;;;;;;;9.28;100.00;101057.31;5044311;28;20052;-74
2022/10/05 00:06:58;;;;;;;8.60;6.00;;;;;;;9.17;100.00;101050.19;5040591;28;20076;-74
2022/10/05 00:09:24;;;;;;;9.18;5.63;;;;;;;9.12;100.00;101043.13;5041747;28;20034;-74
2022/10/05 00:11:50;;;;;;;8.65;5.60;;;;;;;9.09;100.00;101045.72;5042922;28;20048;-74
2022/10/05 00:14:22;;;;;;;6.70;5.78;;;;;;;9.02;100.00;101049.19;5044290;28;20049;-74
2022/10/05 00:16:48;;;;;;;8.32;5.72;;;;;;;8.98;100.00;101045.63;5037231;28;20033;-74
2022/10/05 00:19:20;;;;;;;8.90;5.03;;;;;;;8.88;100.00;101056.94;5043665;28;20036;-74
2022/10/05 00:21:45;;;;;;;11.07;6.00;;;;;;;8.77;100.00;101060.34;5044142;28;20036;-74
2022/10/05 00:24:12;;;;;;;7.90;5.55;;;;;;;8.71;100.00;101049.78;5041537;28;20041;-74
2022/10/05 00:26:38;;;;;;;10.20;5.82;;;;;;;8.66;100.00;101053.25;5037505;28;20471;-74
2022/10/05 00:29:21;;;;;;;10.77;6.00;;;;;;;8.64;100.00;101052.34;5043879;28;20033;-74
2022/10/05 00:31:46;;;;;;;7.03;5.45;;;;;;;8.66;100.00;101056.75;5044638;28;20055;-75
2022/10/05 00:34:11;;;;;;;9.32;6.43;;;;;;;8.60;100.00;101058.44;5041617;28;20033;-74
2022/10/05 00:36:38;;;;;;;9.52;5.60;;;;;;;8.50;100.00;101060.09;5043573;28;20044;-74
2022/10/05 00:39:03;;;;;;;5.85;5.15;;;;;;;8.42;100.00;101060.00;5039224;28;20053;-74
2022/10/05 00:41:54;;;;;;;5.70;5.07;;;;;;;8.37;100.00;101061.66;5043332;28;20119;-74
2022/10/05 00:44:33;;;;;;;7.38;5.82;;;;;;;8.30;100.00;101068.59;5042330;28;20517;-74
2022/10/05 00:47:17;;;;;;;7.07;5.70;;;;;;;8.23;100.00;101061.50;5039073;28;20037;-74
2022/10/05 00:49:58;;;;;;;7.80;5.63;;;;;;;8.13;100.00;101065.78;5020224;28;20034;-74
2022/10/05 00:52:40;;;;;;;6.22;5.45;;;;;;;7.99;100.00;101053.31;5043820;28;20550;-74
2022/10/05 00:55:34;;;;;;;6.28;5.53;;;;;;;7.93;100.00;101055.88;5041079;28;20025;-74
2022/10/05 00:58:15;;;;;;;7.22;5.50;;;;;;;7.78;100.00;101056.53;5042391;28;20045;-74
2022/10/05 01:01:00;;;;;;;5.93;5.30;;;;;;;7.76;100.00;101066.16;5039864;28;20045;-74
2022/10/05 01:03:42;;;;;;;6.32;5.65;;;;;;;7.73;100.00;101059.13;5038802;28;20037;-74
2022/10/05 01:06:18;;;;;;;5.65;5.05;;;;;;;7.66;100.00;101041.50;5022282;28;20091;-74
2022/10/05 01:09:11;;;;;;;6.80;6.10;;;;;;;7.57;100.00;101042.25;5037008;28;20045;-74
2022/10/05 01:11:56;;;;;;;8.63;5.72;;;;;;;7.56;100.00;101052.72;5041401;28;20494;-74
2022/10/05 01:14:33;;;;;;;13.15;6.25;;;;;;;7.48;100.00;101052.63;5023002;28;20361;-74
2022/10/05 01:17:12;;;;;;;5.90;5.03;;;;;;;7.48;100.00;101057.88;5049614;28;20061;-74
2022/10/05 01:19:49;;;;;;;5.05;4.55;;;;;;;7.32;100.00;101056.75;5040220;28;20047;-74
2022/10/05 01:22:52;;;;;;;6.72;5.63;;;;;;;7.30;100.00;101060.22;5038795;28;20033;-74
2022/10/05 01:25:33;;;;;;;9.90;5.90;;;;;;;7.21;100.00;101053.09;5042031;28;20486;-74
2022/10/05 01:28:33;;;;;;;5.30;4.88;;;;;;;7.22;100.00;101039.97;5039848;28;20037;-74
2022/10/05 01:31:03;;;;;;;6.40;5.30;;;;;;;7.19;100.00;101039.06;5023041;28;20128;-74
2022/10/05 01:33:46;;;;;;;7.10;5.60;;;;;;;7.15;100.00;101026.72;5037401;28;20037;-74
2022/10/05 01:36:35;;;;;;;9.18;6.13;;;;;;;7.09;100.00;101032.75;5039764;28;20037;-74
2022/10/05 01:39:15;;;;;;;6.47;5.15;;;;;;;7.10;100.00;101038.88;5039189;28;20606;-74
2022/10/05 01:42:23;;;;;;;8.50;5.25;;;;;;;7.02;100.00;101049.25;5041159;28;20037;-74
2022/10/05 01:45:08;;;;;;;7.63;5.35;;;;;;;7.02;100.00;101047.53;4960105;28;20039;-74
2022/10/05 01:47:42;;;;;;;5.05;4.60;;;;;;;6.99;100.00;101052.72;5030460;28;20049;-74
2022/10/05 01:50:41;;;;;;;8.80;6.05;;;;;;;6.93;100.00;101057.00;5040693;28;20372;-74
2022/10/05 01:53:20;;;;;;;11.02;7.35;;;;;;;6.88;100.00;101056.91;5055619;28;20037;-74
2022/10/05 01:56:09;;;;;;;7.43;6.22;;;;;;;6.91;100.00;101059.56;5040323;28;20052;-74
2022/10/05 01:58:56;;;;;;;6.25;5.20;;;;;;;6.80;100.00;101056.78;5039515;28;20129;-74
2022/10/05 02:01:34;;;;;;;7.15;6.20;;;;;;;6.78;100.00;101065.47;5020166;28;20042;-74
2022/10/05 02:04:17;;;;;;;11.95;5.82;;;;;;;6.77;100.00;101056.72;5036088;28;20042;-74
2022/10/05 02:06:47;;;;;;;7.70;6.00;;;;;;;6.78;100.00;101050.59;5038425;28;20052;-74
2022/10/05 02:09:25;;;;;;;6.85;6.05;;;;;;;6.76;100.00;101048.84;5035037;28;20033;-74
2022/10/05 02:11:58;;;;;;;6.28;5.68;;;;;;;6.71;100.00;101040.00;5039442;28;20028;-74
2022/10/05 02:14:30;;;;;;;8.35;5.95;;;;;;;6.72;100.00;101039.13;5036743;28;20159;-74
2022/10/05 02:16:59;;;;;;;7.90;6.05;;;;;;;6.71;100.00;101037.38;5039301;28;20094;-74
2022/10/05 02:19:35;;;;;;;9.98;5.95;;;;;;;6.72;100.00;101039.13;5042391;28;20047;-74
2022/10/05 02:22:13;;;;;;;6.50;5.78;;;;;;;6.68;100.00;101030.34;5038825;28;20029;-74
2022/10/05 02:24:44;;;;;;;13.20;6.43;;;;;;;6.66;100.00;101036.41;5038054;28;20074;-74
2022/10/05 02:27:14;;;;;;;10.88;5.85;;;;;;;6.64;100.00;101040.75;5040012;28;20483;-74
2022/10/05 02:29:44;;;;;;;9.88;5.18;;;;;;;6.50;100.00;101040.50;5041849;28;20721;-74
2022/10/05 02:32:14;;;;;;;7.85;5.22;;;;;;;6.45;100.00;101037.78;5039349;28;20055;-74
2022/10/05 02:34:42;;;;;;;5.88;5.05;;;;;;;6.46;100.00;101033.41;5040412;28;20542;-74
2022/10/05 02:37:29;;;;;;;7.63;5.38;;;;;;;6.47;100.00;101035.19;5040455;28;20032;-74
2022/10/05 02:40:22;;;;;;;6.25;5.22;;;;;;;6.46;100.00;101046.53;5053635;28;20033;-74
2022/10/05 02:43:10;;;;;;;6.63;5.78;;;;;;;6.45;100.00;101036.91;5039005;28;20048;-74
2022/10/05 02:45:56;;;;;;;6.65;5.85;;;;;;;6.39;100.00;101032.41;5038745;28;20037;-74
2022/10/05 02:48:40;;;;;;;11.10;5.88;;;;;;;6.38;100.00;101035.03;5019320;28;20503;-74
2022/10/05 02:51:24;;;;;;;6.28;5.35;;;;;;;6.37;100.00;101031.53;5019805;28;20030;-74
2022/10/05 02:54:25;;;;;;;6.13;5.53;;;;;;;6.34;100.00;101039.31;5037832;28;20037;-74
2022/10/05 02:56:59;;;;;;;14.50;5.43;;;;;;;6.27;100.00;101040.06;5037950;28;20068;-74
2022/10/05 02:59:37;;;;;;;5.80;5.20;;;;;;;6.25;100.00;101045.25;5037760;28;20033;-74
2022/10/05 03:02:28;;;;;;;5.13;4.60;;;;;;;6.22;100.00;101045.19;5024256;28;20037;-75
2022/10/05 03:05:15;;;;;;;7.65;5.05;;;;;;;6.20;100.00;101049.53;5042844;28;20033;-74
2022/10/05 03:07:59;;;;;;;7.43;5.40;;;;;;;6.21;100.00;101053.94;5023006;28;20037;-74
2022/10/05 03:10:56;;;;;;;6.70;5.18;;;;;;;6.25;100.00;101053.13;5022672;28;20042;-74
2022/10/05 03:13:33;;;;;;;6.00;5.38;;;;;;;6.27;100.00;101058.41;5057344;28;20026;-74
2022/10/05 03:16:35;;;;;;;6.78;5.50;;;;;;;6.22;100.00;101060.06;5022227;28;20147;-75
2022/10/05 03:19:09;;;;;;;;;;;;;;;6.22;100.00;101057.44;5023875;28;20038;-75
2022/10/05 03:21:52;;;;;;;6.90;5.25;;;;;;;6.22;100.00;101055.69;5044622;28;19974;-75
2022/10/05 03:24:38;;;;;;;6.05;5.30;;;;;;;6.18;100.00;101056.47;5021728;28;20058;-75
2022/10/05 03:27:30;;;;;;;7.55;5.93;;;;;;;6.14;100.00;101055.53;5043496;28;20036;-75
2022/10/05 03:30:12;;;;;;;12.18;9.45;;;;;;;6.16;100.00;101050.34;5044048;28;20029;-75
2022/10/05 03:32:46;;;;;;;8.43;7.43;;;;;;;6.19;100.00;101045.16;5042034;28;20514;-75
2022/10/05 03:35:19;;;;;;;8.38;6.90;;;;;;;6.20;100.00;101044.28;5040925;28;20416;-75
2022/10/05 03:38:16;;;;;;;9.15;6.05;;;;;;;6.21;100.00;101043.44;5043605;28;20419;-75
2022/10/05 03:41:00;;;;;;;6.97;6.05;;;;;;;6.13;100.00;101040.69;5025390;28;20036;-75
2022/10/05 03:43:50;;;;;;;6.47;5.30;;;;;;;6.05;100.00;101042.25;5043522;28;20033;-75
2022/10/05 03:46:31;;;;;;;6.15;5.55;;;;;;;6.04;100.00;101045.72;5031545;28;20133;-75
2022/10/05 03:49:15;;;;;;;5.90;5.25;;;;;;;5.90;100.00;101053.25;5054820;28;20040;-75
2022/10/05 03:51:48;;;;;;;11.02;5.88;;;;;;;5.91;100.00;101056.75;5040451;28;20029;-75
2022/10/05 03:54:22;;;;;;;8.35;5.20;;;;;;;5.87;100.00;101055.81;5042475;28;20035;-75
2022/10/05 03:56:54;;;;;;;7.72;5.25;;;;;;;5.87;100.00;101053.19;5040248;28;20037;-75
2022/10/05 03:59:24;;;;;;;8.98;5.57;;;;;;;5.90;100.00;101048.03;5022929;28;20033;-75
2022/10/05 04:01:54;;;;;;;8.90;5.80;;;;;;;5.86;100.00;101045.28;5041788;28;20056;-75
2022/10/05 04:04:30;;;;;;;10.27;6.72;;;;;;;5.93;100.00;101047.19;5044233;28;20079;-75
2022/10/05 04:06:58;;;;;;;7.45;6.03;;;;;;;5.96;100.00;101041.19;5041803;28;20120;-74
2022/10/05 04:09:35;;;;;;;6.20;5.60;;;;;;;5.93;100.00;101035.00;5040237;28;20025;-74
2022/10/05 04:12:24;;;;;;;8.13;5.55;;;;;;;5.96;100.00;101036.81;5038836;28;20033;-74
2022/10/05 04:14:58;;;;;;;5.72;5.13;;;;;;;5.89;100.00;101038.41;5042339;28;20048;-75
2022/10/05 04:17:39;;;;;;;5.32;4.82;;;;;;;5.79;100.00;101038.16;5039156;28;20048;-75
2022/10/05 04:20:16;;;;;;;12.50;5.43;;;;;;;5.70;100.00;101029.25;5052943;28;20045;-75
2022/10/05 04:22:53;;;;;;;6.95;5.95;;;;;;;5.70;100.00;101031.88;5040116;28;20038;-75
2022/10/05 04:25:28;;;;;;;5.72;4.90;;;;;;;5.73;100.00;101031.06;5041761;28;20411;-75
2022/10/05 04:28:20;;;;;;;12.38;5.20;;;;;;;5.70;100.00;101034.50;5044661;28;20072;-75
2022/10/05 04:30:50;;;;;;;8.07;5.50;;;;;;;5.74;100.00;101034.53;5053171;28;20518;-75
2022/10/05 04:33:15;;;;;;;8.02;5.57;;;;;;;5.70;100.00;101034.50;5042278;28;20418;-74
2022/10/05 04:36:01;;;;;;;7.40;5.28;;;;;;;5.71;100.00;101031.03;5036867;28;20034;-75
2022/10/05 04:38:43;;;;;;;10.43;5.63;;;;;;;5.75;100.00;101036.34;5026416;28;20518;-75
2022/10/05 04:41:29;;;;;;;6.70;5.35;;;;;;;5.76;100.00;101035.47;5024175;28;20034;-74
2022/10/05 04:44:10;;;;;;;8.50;5.30;;;;;;;5.72;100.00;101029.28;5036007;28;20037;-75
2022/10/05 04:47:00;;;;;;;9.18;4.70;;;;;;;5.68;100.00;101030.06;5039638;28;20407;-75
2022/10/05 04:50:07;;;;;;;5.60;4.90;;;;;;;5.74;100.00;101024.06;5026661;28;20030;-75
2022/10/05 04:52:56;;;;;;;6.68;5.00;;;;;;;5.75;100.00;101025.84;5028298;28;20025;-75
2022/10/05 04:55:38;;;;;;;8.15;4.95;;;;;;;5.79;100.00;101019.81;5025506;28;20099;-75
2022/10/05 04:58:48;;;;;;;10.55;5.18;;;;;;;5.86;100.00;101019.09;5024002;28;20076;-75
2022/10/05 05:01:47;;;;;;;6.10;4.90;;;;;;;5.95;100.00;101021.06;5051662;28;20042;-75
2022/10/05 05:04:32;;;;;;;6.35;5.75;;;;;;;5.92;100.00;101022.75;5038771;28;20033;-74
2022/10/05 05:07:16;;;;;;;5.30;4.80;;;;;;;5.85;100.00;101022.59;5032891;28;20494;-75
2022/10/05 05:10:13;;;;;;;6.22;5.10;;;;;;;5.86;100.00;101016.47;5039450;28;20636;-75
2022/10/05 05:12:56;;;;;;;5.65;5.10;;;;;;;5.88;100.00;101018.28;5023365;28;20419;-75
2022/10/05 05:15:50;;;;;;;5.80;5.20;;;;;;;5.85;100.00;101019.97;5038534;28;20095;-75
2022/10/05 05:18:44;;;;;;;10.18;5.00;;;;;;;5.82;100.00;101033.00;5019103;28;20038;-75
2022/10/05 05:21:38;;;;;;;8.93;4.93;;;;;;;5.82;100.00;101025.16;5038010;28;20029;-75
2022/10/05 05:24:24;;;;;;;5.90;5.15;;;;;;;5.87;100.00;101026.13;5019753;28;20080;-74
2022/10/05 05:27:27;;;;;;;6.18;4.68;;;;;;;5.88;100.00;101036.63;5051865;28;20121;-75
2022/10/05 05:30:13;;;;;;;6.50;5.10;;;;;;;5.87;100.00;101027.00;5057178;28;20032;-75
2022/10/05 05:32:39;;;;;;;5.72;4.50;;;;;;;5.88;100.00;101020.03;5056418;28;20033;-74
2022/10/05 05:35:24;;;;;;;5.28;4.78;;;;;;;5.90;100.00;101023.56;5038601;28;20412;-74
2022/10/05 05:38:16;;;;;;;6.55;5.07;;;;;;;5.89;100.00;101030.56;5024036;28;20036;-74
2022/10/05 05:40:54;;;;;;;5.18;4.68;;;;;;;5.87;100.00;101016.53;5041058;28;20037;-75
2022/10/05 05:43:29;;;;;;;5.28;4.78;;;;;;;5.81;100.00;101010.25;5051951;28;20045;-75
2022/10/05 05:46:03;;;;;;;7.68;5.43;;;;;;;5.84;100.00;101008.59;5018019;28;20033;-75
2022/10/05 05:48:41;;;;;;;5.70;5.20;;;;;;;5.89;100.00;101008.69;5026662;28;20029;-75
2022/10/05 05:51:29;;;;;;;6.88;5.57;;;;;;;5.94;100.00;101007.06;5038553;28;20442;-75
2022/10/05 05:54:14;;;;;;;6.18;5.47;;;;;;;5.96;100.00;101009.75;5035104;28;20048;-74
2022/10/05 05:56:46;;;;;;;5.90;4.97;;;;;;;6.00;100.00;101016.78;5040365;28;20029;-74
2022/10/05 05:59:24;;;;;;;6.03;4.50;;;;;;;6.03;100.00;101015.13;5028363;28;20395;-75
2022/10/05 06:01:53;;;;;;;6.38;5.40;;;;;;;6.12;100.00;101012.69;5030507;28;20469;-75
2022/10/05 06:04:49;;;;;;;5.43;4.90;;;;;;;6.30;100.00;101012.16;5029358;28;20049;-75
2022/10/05 06:07:22;;;;;;;6.55;5.88;;;;;;;6.42;100.00;101010.59;5036625;28;20048;-75
2022/10/05 06:10:04;;;;;;;45.63;26.63;;;;;;;6.64;100.00;101002.28;5040631;28;20120;-75
2022/10/05 06:12:43;;;;;;;17.30;7.30;;;;;;;6.79;100.00;100997.31;5055334;28;20504;-75
2022/10/05 06:15:46;;;;;;;8.07;5.68;;;;;;;7.01;100.00;100992.41;5038149;28;20033;-75
2022/10/05 06:18:14;;;;;;;;;;;;;;;7.20;100.00;100996.19;5025208;28;20091;-75
2022/10/05 06:20:51;;;;;;;7.22;5.35;;;;;;;7.38;100.00;100992.94;5041407;28;19924;-75
2022/10/05 06:23:39;;;;;;;6.82;5.55;;;;;;;7.55;100.00;100985.31;5021268;28;20438;-75
2022/10/05 06:26:41;;;;;;;5.28;4.75;;;;;;;7.80;100.00;100976.84;5028099;28;20036;-74
2022/10/05 06:29:15;;;;;;;7.00;5.20;;;;;;;8.06;100.00;100971.91;5038599;28;20048;-74
2022/10/05 06:31:55;;;;;;;6.82;5.72;;;;;;;8.31;100.00;100975.69;5038120;28;20037;-74
2022/10/05 06:34:44;;;;;;;11.68;6.28;;;;;;;8.53;100.00;100975.94;5040369;28;20025;-74
2022/10/05 06:37:47;;;;;;;6.20;5.60;;;;;;;8.74;100.00;100978.75;5038811;28;20030;-74
2022/10/05 06:40:17;;;;;;;6.10;5.50;;;;;;;8.93;100.00;100982.44;5040994;28;20033;-74
2022/10/05 06:42:54;;;;;;;6.00;5.38;;;;;;;9.11;100.00;100980.78;5041079;28;20048;-74
2022/10/05 06:46:04;;;;;;;6.20;5.60;;;;;;;9.33;100.00;100984.47;5045481;28;20098;-74
2022/10/05 06:49:07;;;;;;;6.20;5.60;;;;;;;9.54;100.00;100984.59;5026006;28;20073;-73
2022/10/05 06:51:56;;;;;;;9.15;5.93;;;;;;;9.69;100.00;100985.50;5045190;28;20457;-73
2022/10/05 06:55:03;;;;;;;6.78;5.75;;;;;;;9.92;99.08;100988.25;5017027;28;20041;-74
2022/10/05 06:57:57;;;;;;;8.07;6.05;;;;;;;10.05;98.03;100992.69;5038590;28;20513;-74
2022/10/05 07:00:30;;;;;;;7.72;5.57;;;;;;;10.28;97.64;100987.53;5040903;28;20041;-74
2022/10/05 07:03:02;;;;;;;;;;;;;;;10.39;96.49;100984.91;5042510;28;20040;-74
2022/10/05 07:05:50;;;;;;;9.07;7.65;;;;;;;10.63;95.59;100992.84;5021554;28;19921;-74
2022/10/05 07:08:36;;;;;;;7.90;7.20;;;;;;;10.80;93.84;100998.16;5040307;28;20064;-75
2022/10/05 07:11:13;;;;;;;15.52;8.98;;;;;;;11.02;93.69;100995.50;5036438;28;20038;-74
2022/10/05 07:14:04;;;;;;;13.73;8.82;;;;;;;11.26;93.59;101003.41;5042342;28;20435;-74
2022/10/05 07:16:50;;;;;;;10.38;7.90;;;;;;;11.57;92.05;101003.34;5024682;28;20068;-74
2022/10/05 07:19:40;;;;;;;8.45;7.55;;;;;;;11.81;89.25;100995.31;5041869;28;20100;-74
2022/10/05 07:22:47;;;;;;;8.65;7.28;;;;;;;11.99;87.45;101002.34;5022427;28;20555;-74
2022/10/05 07:25:26;;;;;;;8.90;6.40;;;;;;;12.06;84.59;101003.22;5061036;28;20594;-74
2022/10/05 07:28:20;;;;;;;7.15;6.43;;;;;;;12.14;82.25;100996.09;5043245;28;20056;-74
2022/10/05 07:30:51;;;;;;;7.88;7.05;;;;;;;12.21;81.53;100996.97;5023915;28;20124;-74
2022/10/05 07:33:22;;;;;;;8.15;6.95;;;;;;;12.24;81.07;101003.09;5052096;28;20377;-74
2022/10/05 07:39:23;;;;;;;7.50;6.80;;;;;;;12.46;82.06;100997.69;5023319;28;20034;-74
2022/10/05 07:41:58;;;;;;;8.57;7.60;;;;;;;12.53;81.83;100987.94;5055311;28;20075;-74
2022/10/05 07:44:32;;;;;;;12.35;7.03;;;;;;;12.62;81.33;100994.03;5041449;28;20175;-74
2022/10/05 07:47:10;;;;;;;7.47;6.78;;;;;;;12.71;80.99;100988.69;5021634;28;20113;-74
2022/10/05 07:49:51;;;;;;;12.65;7.97;;;;;;;12.82;80.18;100988.59;5041041;28;20029;-74
2022/10/05 07:52:29;;;;;;;7.07;6.05;;;;;;;12.94;78.96;100991.16;5041866;28;20391;-74
2022/10/05 07:55:14;;;;;;;10.18;6.85;;;;;;;13.04;78.64;100991.94;5038628;28;20052;-74
2022/10/05 07:57:58;;;;;;;7.13;6.50;;;;;;;13.13;78.44;100991.88;5039620;28;20092;-73
2022/10/05 08:00:41;;;;;;;7.35;6.65;;;;;;;13.28;78.08;100984.66;5044591;28;20099;-74
2022/10/05 08:03:17;;;;;;;7.68;6.07;;;;;;;13.35;76.46;100981.06;5024266;28;20373;-74
2022/10/05 08:05:45;;;;;;;7.18;6.50;;;;;;;13.35;76.84;100979.28;5039381;28;20099;-74
2022/10/05 08:08:39;;;;;;;10.18;7.00;;;;;;;13.40;75.70;100968.66;5041499;28;20045;-74
2022/10/05 08:11:16;;;;;;;10.65;7.53;;;;;;;13.45;75.22;100971.25;5043204;28;20037;-74
2022/10/05 08:13:54;;;;;;;7.57;6.88;;;;;;;13.55;75.17;100973.78;5037708;28;20033;-74
2022/10/05 08:16:25;;;;;;;8.60;6.43;;;;;;;13.69;75.21;100973.63;5042165;28;20041;-74
2022/10/05 08:19:01;;;;;;;10.20;6.88;;;;;;;13.90;74.47;100974.25;5044712;28;20608;-74
2022/10/05 08:21:35;;;;;;;7.85;7.00;;;;;;;13.99;74.12;100979.44;5043268;28;20124;-74
2022/10/05 08:24:21;;;;;;;12.23;6.90;;;;;;;13.98;72.00;100972.38;5040074;28;20033;-74
2022/10/05 08:27:03;;;;;;;8.55;6.60;;;;;;;14.12;73.30;100967.78;5041070;28;20558;-74
2022/10/05 08:29:36;;;;;;;;;;;;;;;14.30;71.52;100963.09;5042450;28;20052;-74
2022/10/05 08:32:11;;;;;;;;;;;;;;;14.46;71.43;100960.19;5041627;28;20009;-73
2022/10/05 08:34:51;;;;;;;8.77;7.85;;;;;;;14.70;72.54;100952.78;5042752;28;20390;-74
2022/10/05 08:37:36;;;;;;;12.50;8.20;;;;;;;14.90;70.55;100950.63;5038020;28;20120;-74
2022/10/05 08:40:23;;;;;;;7.55;6.60;;;;;;;15.11;70.26;100956.47;5039736;28;20466;-74
2022/10/05 08:43:16;;;;;;;8.45;7.55;;;;;;;15.16;68.80;100959.06;5041101;28;20041;-74
2022/10/05 08:46:09;;;;;;;6.90;6.30;;;;;;;15.30;68.53;100954.34;5032910;28;20125;-74
2022/10/05 08:48:59;;;;;;;7.97;6.55;;;;;;;15.44;68.37;100954.09;5036902;28;20511;-74
2022/10/05 08:51:40;;;;;;;8.23;7.38;;;;;;;15.49;66.11;100949.56;5040428;28;20048;-74
2022/10/05 08:54:14;;;;;;;8.85;7.32;;;;;;;15.54;66.05;100945.91;5044199;28;20449;-74
2022/10/05 08:57:08;;;;;;;7.03;6.45;;;;;;;15.56;65.36;100941.44;5040078;28;20510;-75
2022/10/05 08:59:57;;;;;;;10.88;6.03;;;;;;;15.68;67.27;100944.75;5039909;28;20029;-74
2022/10/05 09:02:59;;;;;;;7.03;6.30;;;;;;;15.74;66.21;100940.19;5040928;28;20120;-74
2022/10/05 09:05:58;;;;;;;11.38;6.82;;;;;;;15.81;66.08;100940.09;5043504;28;20087;-74
2022/10/05 09:09:17;;;;;;;7.45;6.47;;;;;;;15.80;64.90;100939.22;5035848;28;20052;-74
2022/10/05 09:11:56;;;;;;;11.43;6.50;;;;;;;15.94;66.06;100938.91;4998309;28;20050;-74
2022/10/05 09:14:44;;;;;;;7.45;5.80;;;;;;;16.02;64.65;100931.63;5042020;28;20538;-74
2022/10/05 09:17:22;;;;;;;8.48;6.55;;;;;;;16.11;64.31;100922.56;5035886;28;20044;-74
2022/10/05 09:20:20;;;;;;;7.10;6.40;;;;;;;16.25;64.52;100916.94;5042251;28;20037;-75
2022/10/05 09:23:19;;;;;;;7.30;6.60;;;;;;;16.40;64.43;100919.19;5040342;28;20060;-75
2022/10/05 09:25:50;;;;;;;7.43;6.75;;;;;;;16.48;64.56;100913.69;5044261;28;20053;-75
2022/10/05 09:28:46;;;;;;;6.73;6.13;;;;;;;16.55;63.68;100909.97;5041333;28;20040;-75
2022/10/05 09:31:32;;;;;;;6.53;5.82;;;;;;;16.74;65.08;100913.03;5040860;28;20031;-75
2022/10/05 09:34:19;;;;;;;7.00;6.40;;;;;;;16.97;63.24;100904.50;5034751;28;20120;-75
2022/10/05 09:37:06;;;;;;;7.25;6.55;;;;;;;17.18;63.56;100897.69;5042684;28;20049;-75
2022/10/05 09:39:58;;;;;;;8.27;7.35;;;;;;;17.30;63.34;100908.91;5037747;28;20029;-75
2022/10/05 09:42:43;;;;;;;7.35;6.13;;;;;;;17.32;62.88;100906.22;5041625;28;20406;-76
2022/10/05 09:45:44;;;;;;;6.28;5.68;;;;;;;17.51;63.78;100888.75;5037670;28;20040;-75
2022/10/05 09:48:34;;;;;;;6.75;5.85;;;;;;;17.68;64.56;100892.69;5042619;28;20483;-75
2022/10/05 09:51:48;;;;;;;8.18;6.90;;;;;;;17.79;63.72;100885.28;5042657;28;20541;-75
2022/10/05 09:54:42;;;;;;;6.45;5.82;;;;;;;17.89;63.89;100885.88;5038537;28;20037;-75
2022/10/05 09:57:39;;;;;;;7.25;6.57;;;;;;;17.94;64.50;100884.78;5042386;28;20072;-75
2022/10/05 10:00:19;;;;;;;32.92;24.48;;;;;;;18.02;64.53;100883.69;5036721;28;20447;-75
2022/10/05 10:03:06;;;;;;;7.38;6.70;;;;;;;18.04;64.83;100879.19;5037309;28;20076;-74
2022/10/05 10:05:53;;;;;;;7.00;6.30;;;;;;;18.18;65.16;100879.59;5040312;28;20041;-74
2022/10/05 10:09:00;;;;;;;6.93;6.32;;;;;;;18.28;63.61;100878.38;5037817;28;20051;-74
2022/10/05 10:11:47;;;;;;;6.25;5.68;;;;;;;18.37;63.63;100870.09;5000378;28;20049;-74
2022/10/05 10:14:49;;;;;;;6.13;5.53;;;;;;;18.39;64.16;100873.59;5037150;28;20068;-74
2022/10/05 10:17:23;;;;;;;7.28;6.57;;;;;;;18.52;64.72;100871.38;5036337;28;20040;-74
2022/10/05 10:20:11;;;;;;;7.40;6.70;;;;;;;18.68;63.41;100869.06;5035878;28;20040;-74
2022/10/05 10:23:08;;;;;;;7.15;6.45;;;;;;;18.88;62.82;100854.16;5036451;28;20400;-74
2022/10/05 10:25:42;;;;;;;8.43;7.63;;;;;;;19.19;62.41;100859.25;5037917;28;20061;-74
2022/10/05 10:28:29;;;;;;;8.25;7.00;;;;;;;19.37;60.58;100857.72;5039403;28;20046;-74
2022/10/05 10:31:04;;;;;;;12.55;11.50;;;;;;;19.62;59.02;100852.28;5040923;28;20033;-74
2022/10/05 10:33:55;;;;;;;8.52;6.53;;;;;;;19.80;58.67;100851.59;5032280;28;20052;-74
2022/10/05 10:36:38;;;;;;;9.95;9.15;;;;;;;19.91;57.05;100851.19;5037192;28;20045;-74
2022/10/05 10:39:25;;;;;;;7.10;6.50;;;;;;;20.08;56.50;100848.69;5034882;28;20037;-74
2022/10/05 10:42:08;;;;;;;7.25;6.65;;;;;;;20.32;57.07;100843.28;5039111;28;20067;-74
2022/10/05 10:44:46;;;;;;;9.25;8.50;;;;;;;20.53;55.20;100850.41;5039674;28;20041;-74
2022/10/05 10:47:37;;;;;;;8.90;8.30;;;;;;;20.68;54.95;100834.66;5036238;28;20557;-74
2022/10/05 10:50:17;;;;;;;9.77;8.93;;;;;;;20.63;54.24;100844.69;5036557;28;20037;-74
2022/10/05 10:53:11;;;;;;;8.10;7.05;;;;;;;20.47;54.57;100839.94;5030655;28;20048;-74
2022/10/05 10:56:01;;;;;;;9.02;8.27;;;;;;;20.41;54.12;100842.91;5033484;28;20105;-75
2022/10/05 10:59:16;;;;;;;11.23;10.32;;;;;;;20.25;54.51;100844.44;5037214;28;20045;-74
2022/10/05 11:01:59;;;;;;;7.97;7.18;;;;;;;20.27;54.16;100845.28;5034180;28;20049;-74
2022/10/05 11:04:43;;;;;;;11.90;11.05;;;;;;;20.21;54.70;100843.72;5042246;28;20045;-74
2022/10/05 11:07:31;;;;;;;9.90;8.90;;;;;;;20.31;54.64;100844.22;5036925;28;20503;-74
2022/10/05 11:10:08;;;;;;;8.73;8.02;;;;;;;20.35;54.83;100835.09;5040621;28;20079;-74
2022/10/05 11:12:39;;;;;;;7.25;6.55;;;;;;;20.46;55.97;100838.22;5037115;28;20076;-74
2022/10/05 11:15:27;;;;;;;8.52;7.22;;;;;;;20.53;56.07;100833.44;5039568;28;20075;-74
2022/10/05 11:18:09;;;;;;;7.13;6.53;;;;;;;20.51;56.07;100830.84;5039578;28;20044;-72
2022/10/05 11:20:58;;;;;;;10.73;7.40;;;;;;;20.61;56.66;100830.47;5035808;28;20037;-71
2022/10/05 11:23:23;;;;;;;8.20;7.40;;;;;;;20.83;56.54;100830.41;5042044;28;20069;-72
2022/10/05 11:26:22;;;;;;;9.95;8.95;;;;;;;20.86;54.17;100831.16;5043861;28;20025;-72
2022/10/05 11:29:18;;;;;;;7.95;7.30;;;;;;;20.65;55.06;100826.75;5044733;28;20064;-71
2022/10/05 11:31:59;;;;;;;12.93;11.85;;;;;;;20.69;55.06;100829.19;5038576;28;20075;-72
2022/10/05 11:34:47;;;;;;;9.55;8.35;;;;;;;20.78;54.96;100822.56;5042751;28;20097;-71
2022/10/05 11:37:29;;;;;;;9.25;8.48;;;;;;;20.84;54.98;100821.44;5043346;28;20037;-72
2022/10/05 11:40:43;;;;;;;10.45;9.50;;;;;;;21.10;53.33;100823.81;5041594;28;20048;-71
2022/10/05 11:44:02;;;;;;;9.98;9.02;;;;;;;21.31;54.34;100816.59;5044244;28;20439;-72
2022/10/05 11:46:42;;;;;;;9.40;8.55;;;;;;;21.62;54.61;100816.06;4982000;28;20042;-71
2022/10/05 11:49:20;;;;;;;15.77;8.75;;;;;;;21.72;53.98;100805.75;5038195;28;20037;-71
2022/10/05 11:51:50;;;;;;;12.38;10.05;;;;;;;21.86;52.66;100795.19;5042703;28;20034;-72
2022/10/05 11:54:42;;;;;;;14.73;8.75;;;;;;;22.03;51.91;100802.44;5040986;28;20090;-72
2022/10/05 11:57:22;;;;;;;10.25;9.35;;;;;;;22.20;51.38;100796.25;5039713;28;20029;-72
2022/10/05 11:59:57;;;;;;;12.90;11.88;;;;;;;22.09;51.28;100796.75;5044611;28;20048;-71
2022/10/05 12:02:44;;;;;;;11.55;10.55;;;;;;;22.02;51.92;100791.75;5038785;28;20033;-72
2022/10/05 12:05:18;;;;;;;12.07;11.07;;;;;;;22.26;51.69;100787.00;5024433;28;20423;-72
2022/10/05 12:08:13;;;;;;;23.45;22.00;;;;;;;21.89;50.36;100780.75;5034563;28;20048;-72
2022/10/05 12:10:51;;;;;;;8.68;7.97;;;;;;;21.81;50.31;100788.31;5039541;28;20061;-72
2022/10/05 12:13:32;;;;;;;10.80;9.90;;;;;;;21.76;50.52;100780.47;5040467;28;20126;-71
2022/10/05 12:16:21;;;;;;;10.95;10.15;;;;;;;21.93;48.37;100786.81;5035694;28;20410;-71
2022/10/05 12:19:08;;;;;;;11.55;10.85;;;;;;;22.20;47.10;100776.56;5036378;28;20487;-72
2022/10/05 12:21:51;;;;;;;11.23;7.95;;;;;;;22.47;47.05;100779.66;5042445;28;20119;-71
2022/10/05 12:24:45;;;;;;;30.48;28.63;;;;;;;21.94;46.94;100767.94;5043145;28;20056;-72
2022/10/05 12:27:17;;;;;;;8.73;8.02;;;;;;;21.61;48.29;100773.16;5043675;28;20103;-71
2022/10/05 12:29:53;;;;;;;9.40;8.73;;;;;;;21.40;49.33;100773.22;5040878;28;20034;-71
2022/10/05 12:32:24;;;;;;;10.07;8.15;;;;;;;21.10;49.91;100785.38;5041503;28;20059;-71
2022/10/05 12:35:03;;;;;;;11.48;10.48;;;;;;;20.79;49.93;100778.72;5037783;28;20049;-71
2022/10/05 12:38:02;;;;;;;10.63;9.73;;;;;;;20.55;50.90;100778.84;5040246;28;20069;-71
2022/10/05 12:40:45;;;;;;;10.55;9.77;;;;;;;20.40;50.96;100784.84;5038216;28;20159;-71
2022/10/05 12:43:18;;;;;;;10.27;9.45;;;;;;;20.34;51.03;100777.06;5041145;28;20041;-71